createdAt,value
2022-12-26T00:04:48.949Z,67.70
2022-12-26T00:08:20.271Z,67.80
2022-12-26T00:10:55.074Z,67.60
2022-12-26T00:13:46.531Z,67.30
2022-12-26T00:19:38.744Z,67.70
2022-12-26T00:22:23.009Z,67.20
2022-12-26T00:25:21.253Z,67.40
2022-12-26T00:28:23.645Z,67.50
2022-12-26T00:31:30.491Z,67.50
2022-12-26T00:34:33.402Z,67.60
2022-12-26T00:37:36.833Z,67.20
2022-12-26T00:40:24.283Z,66.70
2022-12-26T00:43:26.832Z,67.50
2022-12-26T00:46:17.810Z,67.50
2022-12-26T00:49:19.563Z,67.40
2022-12-26T00:52:19.019Z,67.40
2022-12-26T00:55:06.551Z,67.30
2022-12-26T00:57:47.017Z,67.20
2022-12-26T01:00:21.187Z,67.30
2022-12-26T01:06:12.369Z,67.20
2022-12-26T01:08:56.124Z,67.20
2022-12-26T01:12:12.295Z,67.20
2022-12-26T01:21:37.032Z,67.30
2022-12-26T01:24:19.616Z,67.10
2022-12-26T01:27:09.092Z,67.20
2022-12-26T01:30:08.953Z,67.30
2022-12-26T01:33:04.169Z,67.20
2022-12-26T01:35:50.377Z,67.10
2022-12-26T01:39:06.969Z,67.00
2022-12-26T01:41:53.180Z,67.10
2022-12-26T01:45:09.269Z,67.10
2022-12-26T01:51:47.423Z,67.10
2022-12-26T01:57:56.195Z,67.00
2022-12-26T02:00:49.738Z,67.10
2022-12-26T02:03:46.628Z,66.90
2022-12-26T02:06:53.696Z,66.80
2022-12-26T02:09:37.169Z,67.30
2022-12-26T02:12:38.693Z,66.50
2022-12-26T02:15:31.029Z,66.40
2022-12-26T02:18:17.563Z,66.80
2022-12-26T02:21:13.782Z,66.90
2022-12-26T02:24:28.496Z,66.00
2022-12-26T02:27:45.010Z,66.80
2022-12-26T02:30:49.615Z,66.70
2022-12-26T02:33:34.949Z,67.00
2022-12-26T02:36:29.587Z,66.60
2022-12-26T02:39:43.579Z,66.70
2022-12-26T02:42:36.125Z,66.70
2022-12-26T02:56:21.065Z,66.60
2022-12-26T02:59:55.382Z,66.60
2022-12-26T03:03:26.721Z,66.60
2022-12-26T03:09:55.410Z,66.50
2022-12-26T03:13:00.517Z,66.60
2022-12-26T03:15:57.394Z,66.50
2022-12-26T03:22:03.470Z,66.40
2022-12-26T03:25:08.633Z,66.50
2022-12-26T03:28:24.385Z,66.50
2022-12-26T03:31:12.893Z,65.70
2022-12-26T03:34:15.963Z,66.30
2022-12-26T03:40:41.707Z,66.30
2022-12-26T03:43:42.520Z,66.50
2022-12-26T03:46:51.837Z,66.10
2022-12-26T03:50:16.142Z,66.20
2022-12-26T03:53:38.941Z,66.10
2022-12-26T03:56:54.649Z,66.30
2022-12-26T04:00:09.569Z,66.30
2022-12-26T04:03:13.092Z,66.20
2022-12-26T04:06:23.857Z,66.10
2022-12-26T04:09:33.168Z,66.20
2022-12-26T04:12:33.453Z,66.20
2022-12-26T04:15:58.529Z,66.00
2022-12-26T04:19:24.340Z,65.70
2022-12-26T04:23:18.352Z,65.90
2022-12-26T04:26:14.489Z,65.70
2022-12-26T04:29:27.313Z,65.70
2022-12-26T04:32:43.023Z,64.90
2022-12-26T04:35:52.439Z,65.40
2022-12-26T04:39:02.520Z,65.80
2022-12-26T04:42:03.244Z,65.80
2022-12-26T04:48:06.038Z,65.80
2022-12-26T04:51:15.978Z,65.90
2022-12-26T04:54:04.597Z,65.10
2022-12-26T04:56:44.634Z,65.70
2022-12-26T05:02:37.802Z,65.30
2022-12-26T05:09:04.636Z,65.60
2022-12-26T05:12:19.324Z,65.60
2022-12-26T05:15:10.491Z,65.20
2022-12-26T05:18:10.628Z,65.70
2022-12-26T05:21:10.495Z,65.60
2022-12-26T05:24:15.612Z,65.50
2022-12-26T05:30:26.019Z,65.60
2022-12-26T05:33:20.608Z,65.50
2022-12-26T05:36:13.319Z,65.40
2022-12-26T05:38:57.087Z,65.60
2022-12-26T05:45:09.098Z,65.10
2022-12-26T05:48:07.499Z,65.40
2022-12-26T05:51:02.893Z,65.70
2022-12-26T05:53:36.624Z,65.40
2022-12-26T05:56:23.955Z,65.40
2022-12-26T05:59:17.210Z,65.30
2022-12-26T06:02:20.646Z,65.40
2022-12-26T06:08:58.370Z,65.40
2022-12-26T06:11:57.239Z,65.30
2022-12-26T06:14:32.749Z,65.20
2022-12-26T06:17:05.435Z,65.30
2022-12-26T06:20:08.381Z,65.40
2022-12-26T06:22:57.908Z,65.20
2022-12-26T06:25:59.255Z,65.20
2022-12-26T06:28:53.893Z,65.10
2022-12-26T06:32:06.279Z,65.30
2022-12-26T06:37:46.865Z,65.40
2022-12-26T06:40:32.440Z,65.20
2022-12-26T06:43:20.127Z,65.10
2022-12-26T06:46:16.030Z,65.10
2022-12-26T06:48:51.181Z,65.20
2022-12-26T06:52:05.963Z,65.00
2022-12-26T06:55:15.000Z,65.10
2022-12-26T06:57:50.796Z,65.30
2022-12-26T07:00:40.516Z,65.10
2022-12-26T07:06:34.005Z,65.00
2022-12-26T07:12:23.456Z,64.90
2022-12-26T07:15:50.870Z,64.70
2022-12-26T07:18:03.563Z,64.70
2022-12-26T07:20:57.666Z,64.70
2022-12-26T07:23:52.624Z,64.80
2022-12-26T07:26:35.022Z,64.80
2022-12-26T07:34:57.924Z,64.60
2022-12-26T07:37:58.376Z,64.70
2022-12-26T07:41:00.842Z,64.40
2022-12-26T07:43:58.328Z,64.90
2022-12-26T07:49:45.772Z,64.90
2022-12-26T07:52:38.907Z,64.90
2022-12-26T07:58:16.851Z,64.90
2022-12-26T08:04:19.264Z,65.00
2022-12-26T08:07:16.067Z,65.00
2022-12-26T08:19:09.469Z,65.10
2022-12-26T08:21:42.188Z,65.10
2022-12-26T08:24:52.660Z,65.10
2022-12-26T08:27:41.509Z,65.20
2022-12-26T08:36:47.823Z,65.30
2022-12-26T08:39:33.456Z,65.50
2022-12-26T08:43:11.726Z,65.50
2022-12-26T08:46:07.864Z,65.50
2022-12-26T08:49:06.364Z,65.60
2022-12-26T08:51:54.285Z,65.60
2022-12-26T09:04:53.350Z,65.70
2022-12-26T09:11:41.023Z,65.90
2022-12-26T09:14:44.688Z,65.90
2022-12-26T09:18:04.082Z,66.00
2022-12-26T09:27:22.708Z,66.10
2022-12-26T09:30:01.715Z,66.20
2022-12-26T09:33:22.868Z,66.10
2022-12-26T09:36:14.843Z,66.10
2022-12-26T09:39:18.611Z,66.20
2022-12-26T09:46:02.965Z,66.10
2022-12-26T09:53:54.269Z,66.20
2022-12-26T09:57:15.122Z,66.40
2022-12-26T10:06:46.082Z,66.50
2022-12-26T10:13:34.237Z,66.60
2022-12-26T10:20:52.372Z,66.60
2022-12-26T10:24:12.535Z,66.60
2022-12-26T10:30:44.221Z,66.70
2022-12-26T10:37:16.807Z,66.70
2022-12-26T10:44:03.469Z,66.80
2022-12-26T10:47:12.309Z,66.80
2022-12-26T10:52:44.939Z,66.80
2022-12-26T10:55:31.889Z,66.80
2022-12-26T10:58:43.812Z,66.80
2022-12-26T11:01:50.964Z,66.90
2022-12-26T11:05:15.994Z,66.80
2022-12-26T11:07:54.219Z,67.00
2022-12-26T11:10:24.268Z,66.90
2022-12-26T11:13:34.652Z,66.90
2022-12-26T11:16:36.880Z,67.00
2022-12-26T11:20:03.111Z,67.00
2022-12-26T11:29:47.217Z,67.20
2022-12-26T11:32:26.014Z,67.20
2022-12-26T11:35:15.558Z,67.20
2022-12-26T11:42:09.769Z,67.30
2022-12-26T11:48:08.104Z,67.30
2022-12-26T11:51:00.695Z,67.30
2022-12-26T11:53:34.510Z,67.40
2022-12-26T12:02:44.956Z,67.40
2022-12-26T12:05:36.975Z,67.40
2022-12-26T12:08:30.873Z,67.40
2022-12-26T12:11:27.288Z,67.60
2022-12-26T12:13:58.655Z,67.50
2022-12-26T12:17:03.397Z,67.60
2022-12-26T12:23:17.626Z,67.70
2022-12-26T12:26:25.783Z,67.80
2022-12-26T12:29:23.663Z,67.70
2022-12-26T12:36:23.880Z,67.90
2022-12-26T12:39:31.048Z,67.70
2022-12-26T12:42:34.845Z,67.80
2022-12-26T12:45:16.407Z,67.90
2022-12-26T12:47:55.776Z,67.80
2022-12-26T12:50:30.453Z,67.90
2022-12-26T12:53:51.122Z,68.00
2022-12-26T13:00:04.908Z,68.00
2022-12-26T13:03:25.962Z,68.00
2022-12-26T13:07:08.201Z,67.80
2022-12-26T13:10:13.973Z,68.10
2022-12-26T13:13:28.902Z,68.00
2022-12-26T13:16:55.935Z,67.90
2022-12-26T13:20:03.484Z,68.00
2022-12-26T13:23:33.851Z,68.10
2022-12-26T13:29:59.503Z,68.10
2022-12-26T13:36:14.265Z,68.00
2022-12-26T13:42:41.297Z,68.10
2022-12-26T13:46:09.311Z,68.00
2022-12-26T13:49:10.915Z,68.00
2022-12-26T13:51:51.795Z,68.00
2022-12-26T13:54:30.628Z,67.90
2022-12-26T13:57:44.220Z,67.90
2022-12-26T14:00:49.063Z,67.90
2022-12-26T14:07:51.291Z,68.00
2022-12-26T14:10:45.600Z,68.10
2022-12-26T14:13:39.829Z,67.90
2022-12-26T14:16:42.889Z,67.90
2022-12-26T14:19:29.711Z,68.00
2022-12-26T14:22:57.506Z,68.00
2022-12-26T14:26:14.299Z,68.00
2022-12-26T14:29:15.427Z,68.00
2022-12-26T14:32:19.545Z,67.90
2022-12-26T14:35:47.940Z,67.90
2022-12-26T14:39:04.957Z,67.90
2022-12-26T14:42:36.887Z,67.90
2022-12-26T14:46:30.914Z,67.90
2022-12-26T14:49:21.898Z,68.00
2022-12-26T14:55:39.939Z,67.90
2022-12-26T15:02:56.233Z,68.00
2022-12-26T15:05:53.593Z,68.00
2022-12-26T15:09:07.776Z,68.40
2022-12-26T15:12:33.247Z,68.00
2022-12-26T15:18:50.940Z,68.10
2022-12-26T15:22:16.224Z,68.10
2022-12-26T15:25:21.059Z,68.10
2022-12-26T15:28:58.424Z,68.10
2022-12-26T15:32:07.836Z,68.10
2022-12-26T15:35:36.861Z,68.10
2022-12-26T15:38:40.022Z,68.20
2022-12-26T15:41:37.868Z,68.20
2022-12-26T15:44:16.809Z,68.10
2022-12-26T15:46:50.996Z,68.10
2022-12-26T15:49:23.952Z,68.20
2022-12-26T15:51:56.160Z,68.10
2022-12-26T15:54:39.627Z,68.20
2022-12-26T15:57:18.651Z,68.20
2022-12-26T15:59:59.632Z,68.20
2022-12-26T16:02:26.466Z,68.20
2022-12-26T16:05:44.661Z,68.20
2022-12-26T16:11:23.298Z,68.10
2022-12-26T16:14:25.822Z,68.10
2022-12-26T16:21:27.442Z,68.20
2022-12-26T16:24:27.461Z,68.00
2022-12-26T16:27:35.335Z,68.10
2022-12-26T16:37:24.626Z,68.20
2022-12-26T16:40:37.631Z,68.50
2022-12-26T16:43:41.398Z,68.00
2022-12-26T16:46:48.784Z,68.10
2022-12-26T16:50:02.351Z,68.10
2022-12-26T16:53:03.974Z,68.10
2022-12-26T16:59:04.085Z,68.20
2022-12-26T17:02:50.652Z,68.20
2022-12-26T17:05:52.791Z,68.20
2022-12-26T17:08:57.275Z,68.20
2022-12-26T17:11:30.583Z,68.20
2022-12-26T17:21:05.903Z,68.30
2022-12-26T17:24:20.621Z,68.20
2022-12-26T17:27:24.379Z,68.20
2022-12-26T17:30:18.666Z,68.10
2022-12-26T17:33:23.589Z,68.20
2022-12-26T17:43:58.719Z,68.30
2022-12-26T17:47:26.629Z,68.30
2022-12-26T17:53:35.583Z,68.50
2022-12-26T17:56:29.792Z,68.80
2022-12-26T17:59:13.652Z,68.40
2022-12-26T18:01:56.057Z,68.40
2022-12-26T18:04:40.405Z,68.40
2022-12-26T18:07:43.248Z,68.80
2022-12-26T18:14:06.500Z,68.70
2022-12-26T18:23:10.027Z,68.80
2022-12-26T18:25:38.011Z,68.80
2022-12-26T18:28:24.071Z,68.70
2022-12-26T18:37:43.570Z,68.90
2022-12-26T18:41:09.689Z,68.90
2022-12-26T18:43:56.933Z,68.90
2022-12-26T18:46:45.990Z,68.90
2022-12-26T18:50:20.584Z,68.80
2022-12-26T18:52:59.874Z,68.70
2022-12-26T18:55:52.457Z,68.70
2022-12-26T19:04:43.435Z,68.50
2022-12-26T19:08:03.076Z,68.50
2022-12-26T19:11:19.544Z,68.50
2022-12-26T19:13:46.958Z,68.60
2022-12-26T19:16:51.042Z,68.60
2022-12-26T19:27:16.595Z,68.60
2022-12-26T19:29:41.656Z,68.50
2022-12-26T19:33:04.861Z,68.50
2022-12-26T19:35:47.596Z,68.50
2022-12-26T19:38:14.421Z,68.50
2022-12-26T19:41:05.263Z,68.40
2022-12-26T19:43:35.175Z,68.30
2022-12-26T19:46:12.570Z,68.30
2022-12-26T19:48:39.631Z,68.30
2022-12-26T19:51:09.227Z,68.30
2022-12-26T19:53:48.177Z,68.40
2022-12-26T19:56:22.434Z,68.40
2022-12-26T19:58:56.161Z,68.40
2022-12-26T20:01:38.887Z,68.30
2022-12-26T20:04:26.482Z,68.40
2022-12-26T20:07:19.193Z,68.20
2022-12-26T20:10:04.945Z,68.30
2022-12-26T20:12:52.616Z,68.10
2022-12-26T20:15:21.797Z,68.10
2022-12-26T20:17:52.949Z,68.10
2022-12-26T20:26:56.094Z,68.20
2022-12-26T20:29:22.933Z,68.00
2022-12-26T20:31:49.865Z,68.00
2022-12-26T20:34:32.175Z,67.80
2022-12-26T20:37:04.812Z,67.80
2022-12-26T20:39:32.116Z,67.80
2022-12-26T20:41:59.228Z,67.70
2022-12-26T20:44:26.168Z,67.70
2022-12-26T20:46:53.187Z,67.80
2022-12-26T20:49:20.023Z,67.70
2022-12-26T20:54:53.635Z,67.10
2022-12-26T20:57:20.489Z,67.50
2022-12-26T20:59:47.387Z,67.40
2022-12-26T21:02:14.559Z,67.10
2022-12-26T21:04:41.582Z,67.30
2022-12-26T21:07:08.364Z,67.60
2022-12-26T21:09:36.225Z,67.40
2022-12-26T21:12:06.322Z,67.80
2022-12-26T21:14:33.096Z,67.50
2022-12-26T21:17:00.180Z,67.70
2022-12-26T21:19:29.499Z,67.60
2022-12-26T21:21:57.246Z,67.70
2022-12-26T21:24:35.961Z,67.60
2022-12-26T21:27:04.226Z,67.50
2022-12-26T21:30:13.826Z,67.10
2022-12-26T21:32:51.301Z,67.50
2022-12-26T21:35:41.467Z,67.60
2022-12-26T21:38:31.857Z,67.40
2022-12-26T21:41:18.435Z,67.60
2022-12-26T21:44:17.704Z,67.30
2022-12-26T21:46:59.193Z,67.60
2022-12-26T21:49:33.469Z,67.50
2022-12-26T21:55:42.634Z,67.50
2022-12-26T21:58:11.690Z,67.60
2022-12-26T22:00:57.639Z,67.60
2022-12-26T22:04:01.638Z,67.70
2022-12-26T22:09:34.729Z,67.70
2022-12-26T22:12:38.336Z,67.60
2022-12-26T22:15:45.996Z,67.60
2022-12-26T22:18:27.364Z,67.70
2022-12-26T22:21:01.433Z,67.70
2022-12-26T22:23:42.703Z,67.60
2022-12-26T22:26:38.794Z,67.70
2022-12-26T22:29:24.584Z,67.70
2022-12-26T22:35:36.943Z,67.60
2022-12-26T22:38:19.069Z,67.50
2022-12-26T22:41:10.324Z,67.50
2022-12-26T22:44:04.530Z,67.50
2022-12-26T22:46:48.553Z,67.40
2022-12-26T22:49:50.022Z,67.40
2022-12-26T22:52:41.946Z,67.30
2022-12-26T22:55:25.232Z,67.30
2022-12-26T22:58:02.554Z,67.40
2022-12-26T23:00:45.011Z,67.40
2022-12-26T23:03:28.723Z,67.40
2022-12-26T23:06:13.715Z,67.30
2022-12-26T23:15:28.552Z,66.80
2022-12-26T23:18:34.585Z,67.00
2022-12-26T23:21:51.243Z,66.70
2022-12-26T23:24:38.196Z,66.70
2022-12-26T23:27:47.584Z,66.80
2022-12-26T23:33:21.295Z,66.80
2022-12-26T23:41:51.423Z,66.90
2022-12-26T23:44:39.661Z,66.90
2022-12-26T23:50:16.150Z,67.00
2022-12-26T23:53:00.764Z,66.50
2022-12-26T23:58:38.028Z,66.50
